createdAt,value
2023-02-28T00:00:12.732Z,8.57
2023-02-28T00:01:46.080Z,8.54
2023-02-28T00:03:20.026Z,8.52
2023-02-28T00:04:54.141Z,8.47
2023-02-28T00:06:27.482Z,8.50
2023-02-28T00:07:59.817Z,8.48
2023-02-28T00:09:34.593Z,8.55
2023-02-28T00:11:11.502Z,8.58
2023-02-28T00:12:44.927Z,8.67
2023-02-28T00:14:18.044Z,8.69
2023-02-28T00:16:02.204Z,8.74
2023-02-28T00:17:35.372Z,8.74
2023-02-28T00:19:09.032Z,8.77
2023-02-28T00:20:41.249Z,8.78
2023-02-28T00:22:14.996Z,8.82
2023-02-28T00:23:48.475Z,8.85
2023-02-28T00:25:24.849Z,8.86
2023-02-28T00:26:58.115Z,8.88
2023-02-28T00:28:31.742Z,8.92
2023-02-28T00:30:07.838Z,8.90
2023-02-28T00:31:41.400Z,8.90
2023-02-28T00:33:14.788Z,8.92
2023-02-28T00:34:47.062Z,8.93
2023-02-28T00:36:21.647Z,8.93
2023-02-28T00:37:55.010Z,8.91
2023-02-28T00:39:28.279Z,8.87
2023-02-28T00:41:06.145Z,8.88
2023-02-28T00:42:39.440Z,8.89
2023-02-28T00:44:13.124Z,8.91
2023-02-28T00:45:46.408Z,8.95
2023-02-28T00:47:20.103Z,8.91
2023-02-28T00:48:53.529Z,8.92
2023-02-28T00:50:27.103Z,8.92
2023-02-28T00:52:00.232Z,8.96
2023-02-28T00:53:34.727Z,9.00
2023-02-28T00:55:08.457Z,9.02
2023-02-28T00:56:43.154Z,9.04
2023-02-28T00:58:16.485Z,9.02
2023-02-28T00:59:49.923Z,9.00
2023-02-28T01:01:23.301Z,8.99
2023-02-28T01:02:55.914Z,8.99
2023-02-28T01:04:29.503Z,8.95
2023-02-28T01:06:02.906Z,8.98
2023-02-28T01:07:36.029Z,8.99
2023-02-28T01:09:09.892Z,9.02
2023-02-28T01:10:43.385Z,9.02
2023-02-28T01:12:18.213Z,9.04
2023-02-28T01:13:54.615Z,9.07
2023-02-28T01:15:28.079Z,9.06
2023-02-28T01:17:01.372Z,9.10
2023-02-28T01:18:34.947Z,9.11
2023-02-28T01:20:11.144Z,9.12
2023-02-28T01:21:44.710Z,9.16
2023-02-28T01:23:20.414Z,9.19
2023-02-28T01:24:54.081Z,9.19
2023-02-28T01:26:27.429Z,9.22
2023-02-28T01:28:02.290Z,9.18
2023-02-28T01:29:35.656Z,9.20
2023-02-28T01:31:10.081Z,9.22
2023-02-28T01:32:44.596Z,9.25
2023-02-28T01:34:20.190Z,9.25
2023-02-28T01:36:00.152Z,9.26
2023-02-28T01:37:33.558Z,9.26
2023-02-28T01:39:06.930Z,9.24
2023-02-28T01:40:39.546Z,9.24
2023-02-28T01:42:12.734Z,9.26
2023-02-28T01:44:09.587Z,9.21
2023-02-28T01:45:42.252Z,9.24
2023-02-28T01:47:15.818Z,9.26
2023-02-28T01:48:54.004Z,9.24
2023-02-28T01:50:30.631Z,9.29
2023-02-28T01:52:06.042Z,9.30
2023-02-28T01:53:48.734Z,9.26
2023-02-28T01:55:23.519Z,9.22
2023-02-28T01:57:01.365Z,9.21
2023-02-28T01:58:35.139Z,9.22
2023-02-28T02:00:14.341Z,9.11
2023-02-28T02:01:47.540Z,9.11
2023-02-28T02:03:22.859Z,9.11
2023-02-28T02:05:00.361Z,9.09
2023-02-28T02:06:38.199Z,9.12
2023-02-28T02:08:16.498Z,9.14
2023-02-28T02:09:49.947Z,9.09
2023-02-28T02:11:25.422Z,9.04
2023-02-28T02:13:31.944Z,9.04
2023-02-28T02:15:11.844Z,9.08
2023-02-28T02:17:02.452Z,9.05
2023-02-28T02:18:40.467Z,9.06
2023-02-28T02:20:53.182Z,9.04
2023-02-28T02:23:04.038Z,9.02
2023-02-28T02:25:22.210Z,9.08
2023-02-28T02:27:07.453Z,9.04
2023-02-28T02:29:08.753Z,8.98
2023-02-28T02:31:03.116Z,9.04
2023-02-28T02:33:21.315Z,9.02
2023-02-28T02:35:04.051Z,9.02
2023-02-28T02:36:42.763Z,8.96
2023-02-28T02:38:25.405Z,8.98
2023-02-28T02:40:04.548Z,8.96
2023-02-28T02:41:47.421Z,8.97
2023-02-28T02:43:27.308Z,8.97
2023-02-28T02:45:07.653Z,8.96
2023-02-28T02:46:44.803Z,8.97
2023-02-28T02:48:21.750Z,8.97
2023-02-28T02:50:02.211Z,8.96
2023-02-28T02:51:39.571Z,8.91
2023-02-28T02:53:16.065Z,8.81
2023-02-28T02:54:52.167Z,8.66
2023-02-28T02:56:30.000Z,8.58
2023-02-28T02:58:06.775Z,8.49
2023-02-28T02:59:41.815Z,8.48
2023-02-28T03:01:18.548Z,8.46
2023-02-28T03:02:56.007Z,8.43
2023-02-28T03:04:34.458Z,8.45
2023-02-28T03:06:09.326Z,8.44
2023-02-28T03:07:42.925Z,8.38
2023-02-28T03:09:17.680Z,8.36
2023-02-28T03:10:54.696Z,8.26
2023-02-28T03:12:38.245Z,8.22
2023-02-28T03:14:32.103Z,8.19
2023-02-28T03:16:24.174Z,8.15
2023-02-28T03:18:06.769Z,8.26
2023-02-28T03:19:57.911Z,8.28
2023-02-28T03:21:41.245Z,8.33
2023-02-28T03:23:19.343Z,8.31
2023-02-28T03:25:02.105Z,8.31
2023-02-28T03:26:39.245Z,8.30
2023-02-28T03:28:18.020Z,8.33
2023-02-28T03:29:59.519Z,8.36
2023-02-28T03:31:35.794Z,8.32
2023-02-28T03:33:14.641Z,8.39
2023-02-28T03:34:58.175Z,8.48
2023-02-28T03:36:34.628Z,8.52
2023-02-28T03:38:15.515Z,8.56
2023-02-28T03:39:53.785Z,8.58
2023-02-28T03:41:33.249Z,8.66
2023-02-28T03:43:14.526Z,8.71
2023-02-28T03:44:53.636Z,8.74
2023-02-28T03:46:31.935Z,8.75
2023-02-28T03:48:12.199Z,8.74
2023-02-28T03:49:51.616Z,8.72
2023-02-28T03:51:27.653Z,8.71
2023-02-28T03:53:06.033Z,8.76
2023-02-28T03:54:45.998Z,8.78
2023-02-28T03:56:22.942Z,8.76
2023-02-28T03:58:02.817Z,8.74
2023-02-28T03:59:40.050Z,8.81
2023-02-28T04:01:21.407Z,8.85
2023-02-28T04:02:55.834Z,8.90
2023-02-28T04:04:29.409Z,8.90
2023-02-28T04:06:02.911Z,8.92
2023-02-28T04:07:36.812Z,8.90
2023-02-28T04:10:52.125Z,8.87
2023-02-28T04:12:25.938Z,8.84
2023-02-28T04:13:59.266Z,8.74
2023-02-28T04:15:33.306Z,8.71
2023-02-28T04:17:07.249Z,8.77
2023-02-28T04:18:41.318Z,8.77
2023-02-28T04:20:15.590Z,8.79
2023-02-28T04:21:51.059Z,8.83
2023-02-28T04:23:24.661Z,8.88
2023-02-28T04:24:57.007Z,8.89
2023-02-28T04:26:33.468Z,8.92
2023-02-28T04:28:07.118Z,8.91
2023-02-28T04:29:40.782Z,8.96
2023-02-28T04:31:14.084Z,8.98
2023-02-28T04:32:47.665Z,8.94
2023-02-28T04:34:22.435Z,8.95
2023-02-28T04:36:03.751Z,8.96
2023-02-28T04:37:37.996Z,9.00
2023-02-28T04:39:11.906Z,8.99
2023-02-28T04:40:45.633Z,9.05
2023-02-28T04:42:20.365Z,9.08
2023-02-28T04:43:54.583Z,9.12
2023-02-28T04:45:31.240Z,9.13
2023-02-28T04:47:05.292Z,9.16
2023-02-28T04:48:40.260Z,9.13
2023-02-28T04:50:13.601Z,9.14
2023-02-28T04:51:46.886Z,9.13
2023-02-28T04:53:20.613Z,9.12
2023-02-28T04:54:54.019Z,9.11
2023-02-28T04:56:27.247Z,9.08
2023-02-28T04:58:02.287Z,9.06
2023-02-28T04:59:35.798Z,8.96
2023-02-28T05:01:18.473Z,8.89
2023-02-28T05:02:51.828Z,8.83
2023-02-28T05:04:25.073Z,8.79
2023-02-28T05:05:57.250Z,8.79
2023-02-28T05:07:30.901Z,8.76
2023-02-28T05:09:04.968Z,8.85
2023-02-28T05:10:38.756Z,8.92
2023-02-28T05:12:12.066Z,8.97
2023-02-28T05:13:47.578Z,8.91
2023-02-28T05:15:20.993Z,8.96
2023-02-28T05:16:54.545Z,8.90
2023-02-28T05:18:27.895Z,8.93
2023-02-28T05:20:14.666Z,8.96
2023-02-28T05:21:54.241Z,9.03
2023-02-28T05:23:27.380Z,9.05
2023-02-28T05:25:01.399Z,9.08
2023-02-28T05:26:37.403Z,9.06
2023-02-28T05:28:11.070Z,9.02
2023-02-28T05:29:45.845Z,9.00
2023-02-28T05:31:18.183Z,8.95
2023-02-28T05:32:53.686Z,8.91
2023-02-28T05:34:27.113Z,8.93
2023-02-28T05:36:00.403Z,8.93
2023-02-28T05:37:32.500Z,8.89
2023-02-28T05:39:07.310Z,8.70
2023-02-28T05:40:41.621Z,8.55
2023-02-28T05:42:15.033Z,8.42
2023-02-28T05:43:48.978Z,8.19
2023-02-28T05:45:23.815Z,8.09
2023-02-28T05:46:57.076Z,8.02
2023-02-28T05:48:29.397Z,7.99
2023-02-28T05:50:02.700Z,7.93
2023-02-28T05:51:37.461Z,7.89
2023-02-28T05:53:11.598Z,7.81
2023-02-28T05:54:44.781Z,7.79
2023-02-28T05:56:18.076Z,7.81
2023-02-28T05:57:51.785Z,7.82
2023-02-28T05:59:25.125Z,7.79
2023-02-28T06:01:00.356Z,7.73
2023-02-28T06:02:33.697Z,7.61
2023-02-28T06:04:14.302Z,7.64
2023-02-28T06:05:52.680Z,7.69
2023-02-28T06:07:25.781Z,7.64
2023-02-28T06:08:59.248Z,7.59
2023-02-28T06:10:31.823Z,7.61
2023-02-28T06:12:08.350Z,7.66
2023-02-28T06:13:42.028Z,7.64
2023-02-28T06:15:16.284Z,7.60
2023-02-28T06:16:51.123Z,7.67
2023-02-28T06:18:24.465Z,7.68
2023-02-28T06:19:57.935Z,7.65
2023-02-28T06:21:31.730Z,7.63
2023-02-28T06:23:05.643Z,7.64
2023-02-28T06:24:39.071Z,7.63
2023-02-28T06:26:12.503Z,7.62
2023-02-28T06:27:46.282Z,7.60
2023-02-28T06:29:20.058Z,7.63
2023-02-28T06:30:53.509Z,7.61
2023-02-28T06:32:28.683Z,7.64
2023-02-28T06:34:00.840Z,7.65
2023-02-28T06:35:34.300Z,7.70
2023-02-28T06:37:07.727Z,7.72
2023-02-28T06:38:42.097Z,7.76
2023-02-28T06:40:16.083Z,7.75
2023-02-28T06:41:55.513Z,7.73
2023-02-28T06:43:31.199Z,7.70
2023-02-28T06:45:10.338Z,7.69
2023-02-28T06:46:44.382Z,7.75
2023-02-28T06:48:20.126Z,7.83
2023-02-28T06:49:53.672Z,7.85
2023-02-28T06:51:28.375Z,7.89
2023-02-28T06:53:01.655Z,7.90
2023-02-28T06:54:35.042Z,7.86
2023-02-28T06:56:09.634Z,7.81
2023-02-28T06:57:42.969Z,7.77
2023-02-28T06:59:16.106Z,7.77
2023-02-28T07:00:53.425Z,7.73
2023-02-28T07:02:26.717Z,7.74
2023-02-28T07:04:02.378Z,7.75
2023-02-28T07:05:37.092Z,7.81
2023-02-28T07:07:10.504Z,7.83
2023-02-28T07:08:43.928Z,7.85
2023-02-28T07:10:20.115Z,7.86
2023-02-28T07:11:53.478Z,7.84
2023-02-28T07:13:27.106Z,7.83
2023-02-28T07:15:00.659Z,7.88
2023-02-28T07:16:33.793Z,7.77
2023-02-28T07:18:07.234Z,7.85
2023-02-28T07:19:42.380Z,7.83
2023-02-28T07:21:22.732Z,7.85
2023-02-28T07:23:08.929Z,7.90
2023-02-28T07:24:56.039Z,7.85
2023-02-28T07:26:30.142Z,7.88
2023-02-28T07:28:03.736Z,7.93
2023-02-28T07:29:38.443Z,7.93
2023-02-28T07:31:13.477Z,7.90
2023-02-28T07:32:47.250Z,7.90
2023-02-28T07:34:20.502Z,7.88
2023-02-28T07:36:21.770Z,7.92
2023-02-28T07:38:02.107Z,7.89
2023-02-28T07:39:35.319Z,7.83
2023-02-28T07:41:08.771Z,7.80
2023-02-28T07:42:43.117Z,7.82
2023-02-28T07:44:16.741Z,7.88
2023-02-28T07:45:49.997Z,7.90
2023-02-28T07:47:25.500Z,7.92
2023-02-28T07:49:00.828Z,7.92
2023-02-28T07:50:36.254Z,7.95
2023-02-28T07:52:12.308Z,7.97
2023-02-28T07:53:45.644Z,7.90
2023-02-28T07:55:19.580Z,7.93
2023-02-28T07:56:52.968Z,7.90
2023-02-28T07:58:26.893Z,7.82
2023-02-28T08:00:03.541Z,7.80
2023-02-28T08:01:46.148Z,7.76
2023-02-28T08:03:20.301Z,7.84
2023-02-28T08:04:53.807Z,7.88
2023-02-28T08:06:27.866Z,7.89
2023-02-28T08:08:02.955Z,7.80
2023-02-28T08:09:36.930Z,7.73
2023-02-28T08:11:10.068Z,7.81
2023-02-28T08:12:43.316Z,7.73
2023-02-28T08:14:17.660Z,7.78
2023-02-28T08:15:50.945Z,7.75
2023-02-28T08:17:24.238Z,7.67
2023-02-28T08:18:57.600Z,7.59
2023-02-28T08:20:31.119Z,7.61
2023-02-28T08:22:04.831Z,7.62
2023-02-28T08:23:39.770Z,7.63
2023-02-28T08:25:13.165Z,7.66
2023-02-28T08:26:46.577Z,7.60
2023-02-28T08:28:20.305Z,7.66
2023-02-28T08:29:53.498Z,7.67
2023-02-28T08:31:26.831Z,7.70
2023-02-28T08:33:00.750Z,7.71
2023-02-28T08:34:34.244Z,7.72
2023-02-28T08:36:09.052Z,7.74
2023-02-28T08:37:42.411Z,7.72
2023-02-28T08:39:17.629Z,7.72
2023-02-28T08:40:50.822Z,7.64
2023-02-28T08:42:24.169Z,7.60
2023-02-28T08:43:57.407Z,7.65
2023-02-28T08:45:30.842Z,7.64
2023-02-28T08:47:04.503Z,7.63
2023-02-28T08:48:38.953Z,7.65
2023-02-28T08:50:14.560Z,7.63
2023-02-28T08:51:48.365Z,7.57
2023-02-28T08:53:34.754Z,7.60
2023-02-28T08:55:23.120Z,7.57
2023-02-28T08:57:16.954Z,7.51
2023-02-28T08:59:16.766Z,7.49
2023-02-28T09:01:11.311Z,7.50
2023-02-28T09:02:57.369Z,7.54
2023-02-28T09:04:42.803Z,7.52
2023-02-28T09:06:32.080Z,7.49
2023-02-28T09:08:18.329Z,7.48
2023-02-28T09:10:11.836Z,7.56
2023-02-28T09:11:59.814Z,7.66
2023-02-28T09:13:47.537Z,7.65
2023-02-28T09:15:40.733Z,7.63
2023-02-28T09:17:48.807Z,7.75
2023-02-28T09:19:49.377Z,7.67
2023-02-28T09:21:35.632Z,7.70
2023-02-28T09:23:28.774Z,7.72
2023-02-28T09:25:15.955Z,7.78
2023-02-28T09:27:05.578Z,7.94
2023-02-28T09:29:20.811Z,8.03
2023-02-28T09:31:20.971Z,8.03
2023-02-28T09:33:25.528Z,7.95
2023-02-28T09:35:30.831Z,7.93
2023-02-28T09:37:17.710Z,8.00
2023-02-28T09:39:10.771Z,7.94
2023-02-28T09:41:01.757Z,8.00
2023-02-28T09:42:56.999Z,7.99
2023-02-28T09:45:00.817Z,8.02
2023-02-28T09:46:51.803Z,8.02
2023-02-28T09:48:50.819Z,8.06
2023-02-28T09:50:40.885Z,8.11
2023-02-28T09:52:36.759Z,8.12
2023-02-28T09:54:20.372Z,8.22
2023-02-28T09:56:16.801Z,8.20
2023-02-28T09:58:18.739Z,8.16
2023-02-28T10:00:22.891Z,8.12
2023-02-28T10:02:09.038Z,8.20
2023-02-28T10:04:01.335Z,8.22
2023-02-28T10:05:50.845Z,8.33
2023-02-28T10:08:04.760Z,8.41
2023-02-28T10:10:10.787Z,8.41
2023-02-28T10:12:10.849Z,8.37
2023-02-28T10:14:11.793Z,8.47
2023-02-28T10:16:03.466Z,8.45
2023-02-28T10:18:08.372Z,8.44
2023-02-28T10:20:09.089Z,8.47
2023-02-28T10:22:03.624Z,8.52
2023-02-28T10:23:53.067Z,8.58
2023-02-28T10:25:33.044Z,8.62
2023-02-28T10:27:24.665Z,8.63
2023-02-28T10:29:13.075Z,8.66
2023-02-28T10:31:14.232Z,8.53
2023-02-28T10:33:07.993Z,8.43
2023-02-28T10:35:07.893Z,8.43
2023-02-28T10:37:14.766Z,8.48
2023-02-28T10:39:08.849Z,8.38
2023-02-28T10:40:56.336Z,8.38
2023-02-28T10:42:55.786Z,8.32
2023-02-28T10:44:50.836Z,8.33
2023-02-28T10:46:31.522Z,8.44
2023-02-28T10:48:38.843Z,8.52
2023-02-28T10:50:55.463Z,8.55
2023-02-28T10:52:39.570Z,8.50
2023-02-28T10:54:27.820Z,8.49
2023-02-28T10:56:23.319Z,8.56
2023-02-28T10:58:23.685Z,8.51
2023-02-28T11:00:26.845Z,8.42
2023-02-28T11:02:45.935Z,8.29
2023-02-28T11:04:52.007Z,8.30
2023-02-28T11:06:38.784Z,8.24
2023-02-28T11:08:33.883Z,8.23
2023-02-28T11:10:22.633Z,8.19
2023-02-28T11:12:17.884Z,8.18
2023-02-28T11:14:08.106Z,8.10
2023-02-28T11:16:09.005Z,8.08
2023-02-28T11:17:56.579Z,8.06
2023-02-28T11:19:49.097Z,8.11
2023-02-28T11:21:38.982Z,8.06
2023-02-28T11:23:37.847Z,7.98
2023-02-28T11:25:32.185Z,7.99
2023-02-28T11:27:55.949Z,7.94
2023-02-28T11:29:48.893Z,7.90
2023-02-28T11:31:49.905Z,7.96
2023-02-28T11:33:46.047Z,8.04
2023-02-28T11:35:43.823Z,8.04
2023-02-28T11:37:32.243Z,8.05
2023-02-28T11:39:28.365Z,8.04
2023-02-28T11:41:40.257Z,8.09
2023-02-28T11:43:47.249Z,8.06
2023-02-28T11:45:31.001Z,8.06
2023-02-28T11:47:15.161Z,8.02
2023-02-28T11:49:00.587Z,8.05
2023-02-28T11:50:50.020Z,8.09
2023-02-28T11:52:36.571Z,8.11
2023-02-28T11:54:26.765Z,8.15
2023-02-28T11:56:06.434Z,8.08
2023-02-28T11:57:55.488Z,8.03
2023-02-28T11:59:53.300Z,8.03
2023-02-28T12:01:43.317Z,8.04
2023-02-28T12:03:33.775Z,8.06
2023-02-28T12:05:20.086Z,8.10
2023-02-28T12:07:03.744Z,8.07
2023-02-28T12:08:51.475Z,8.08
2023-02-28T12:10:27.307Z,8.01
2023-02-28T12:12:11.743Z,8.00
2023-02-28T12:13:56.725Z,8.02
2023-02-28T12:15:44.897Z,8.00
2023-02-28T12:17:28.779Z,7.92
2023-02-28T12:19:15.444Z,7.94
2023-02-28T12:20:53.614Z,8.01
2023-02-28T12:22:32.696Z,8.02
2023-02-28T12:24:21.203Z,8.03
2023-02-28T12:26:04.578Z,7.98
2023-02-28T12:27:42.439Z,7.96
2023-02-28T12:29:21.422Z,7.95
2023-02-28T12:31:01.014Z,8.01
2023-02-28T12:32:37.606Z,8.02
2023-02-28T12:34:18.037Z,7.98
2023-02-28T12:35:56.724Z,7.97
2023-02-28T12:37:33.992Z,8.00
2023-02-28T12:39:13.440Z,7.98
2023-02-28T12:40:51.179Z,7.90
2023-02-28T12:42:30.294Z,7.86
2023-02-28T12:44:11.305Z,7.93
2023-02-28T12:45:51.068Z,7.97
2023-02-28T12:47:27.156Z,7.97
2023-02-28T12:49:07.347Z,7.94
2023-02-28T12:50:43.237Z,8.02
2023-02-28T12:52:22.808Z,8.04
2023-02-28T12:54:07.202Z,8.07
2023-02-28T12:55:46.524Z,8.11
2023-02-28T12:57:29.685Z,8.09
2023-02-28T12:59:13.033Z,8.08
2023-02-28T13:01:05.764Z,8.12
2023-02-28T13:03:24.946Z,8.15
2023-02-28T13:05:27.529Z,8.19
2023-02-28T13:07:26.576Z,8.16
2023-02-28T13:09:07.101Z,8.11
2023-02-28T13:10:44.505Z,8.06
2023-02-28T13:12:21.654Z,8.08
2023-02-28T13:14:01.222Z,8.14
2023-02-28T13:15:39.217Z,8.17
2023-02-28T13:17:15.193Z,8.12
2023-02-28T13:18:49.371Z,8.05
2023-02-28T13:20:25.542Z,7.97
2023-02-28T13:22:00.170Z,7.98
2023-02-28T13:24:06.173Z,7.94
2023-02-28T13:25:58.487Z,8.02
2023-02-28T13:27:37.815Z,7.97
2023-02-28T13:29:39.835Z,7.91
2023-02-28T13:31:13.304Z,7.89
2023-02-28T13:32:46.487Z,7.88
2023-02-28T13:34:19.623Z,7.83
2023-02-28T13:36:25.182Z,7.87
2023-02-28T13:38:17.515Z,7.92
2023-02-28T13:39:54.471Z,7.93
2023-02-28T13:41:45.478Z,7.91
2023-02-28T13:43:27.875Z,7.94
2023-02-28T13:45:26.200Z,7.97
2023-02-28T13:47:31.774Z,7.95
2023-02-28T13:49:30.099Z,7.96
2023-02-28T13:51:41.977Z,7.88
2023-02-28T13:53:50.591Z,7.90
2023-02-28T13:55:34.457Z,7.96
2023-02-28T13:57:22.981Z,7.96
2023-02-28T13:59:01.156Z,7.91
2023-02-28T14:00:46.212Z,7.81
2023-02-28T14:02:43.389Z,7.81
2023-02-28T14:04:56.512Z,7.86
2023-02-28T14:06:33.456Z,7.83
2023-02-28T14:08:14.862Z,7.83
2023-02-28T14:09:54.198Z,7.83
2023-02-28T14:11:35.928Z,7.82
2023-02-28T14:13:31.852Z,7.87
2023-02-28T14:15:07.023Z,7.92
2023-02-28T14:16:46.166Z,7.93
2023-02-28T14:18:27.353Z,7.90
2023-02-28T14:20:01.013Z,7.89
2023-02-28T14:21:36.685Z,7.85
2023-02-28T14:23:20.566Z,7.89
2023-02-28T14:25:17.849Z,7.94
2023-02-28T14:27:05.815Z,7.83
2023-02-28T14:28:58.040Z,7.83
2023-02-28T14:31:03.060Z,7.76
2023-02-28T14:32:44.046Z,7.77
2023-02-28T14:34:34.679Z,7.80
2023-02-28T14:36:20.442Z,7.79
2023-02-28T14:37:55.697Z,7.77
2023-02-28T14:39:32.509Z,7.72
2023-02-28T14:41:09.189Z,7.72
2023-02-28T14:42:49.816Z,7.68
2023-02-28T14:44:24.932Z,7.72
2023-02-28T14:46:01.735Z,7.68
2023-02-28T14:47:37.709Z,7.68
2023-02-28T14:49:22.527Z,7.68
2023-02-28T14:50:59.232Z,7.64
2023-02-28T14:52:34.554Z,7.61
2023-02-28T14:54:07.862Z,7.54
2023-02-28T14:55:47.493Z,7.62
2023-02-28T14:57:25.848Z,7.63
2023-02-28T14:59:00.617Z,7.57
2023-02-28T15:00:35.968Z,7.61
2023-02-28T15:02:19.883Z,7.61
2023-02-28T15:04:02.409Z,7.61
2023-02-28T15:05:37.237Z,7.59
2023-02-28T15:07:11.042Z,7.55
2023-02-28T15:08:44.225Z,7.54
2023-02-28T15:10:21.024Z,7.48
2023-02-28T15:11:54.334Z,7.56
2023-02-28T15:13:38.190Z,7.60
2023-02-28T15:15:19.596Z,7.56
2023-02-28T15:16:58.322Z,7.58
2023-02-28T15:18:45.802Z,7.55
2023-02-28T15:20:20.442Z,7.54
2023-02-28T15:22:00.239Z,7.49
2023-02-28T15:23:35.101Z,7.48
2023-02-28T15:25:12.208Z,7.46
2023-02-28T15:26:58.691Z,7.49
2023-02-28T15:28:32.778Z,7.54
2023-02-28T15:30:09.574Z,7.57
2023-02-28T15:31:57.002Z,7.50
2023-02-28T15:33:32.240Z,7.52
2023-02-28T15:35:22.507Z,7.51
2023-02-28T15:36:55.894Z,7.54
2023-02-28T15:38:30.479Z,7.52
2023-02-28T15:40:13.785Z,7.46
2023-02-28T15:41:47.215Z,7.43
2023-02-28T15:43:26.918Z,7.43
2023-02-28T15:45:00.780Z,7.42
2023-02-28T15:46:34.145Z,7.44
2023-02-28T15:48:18.640Z,7.42
2023-02-28T15:49:55.083Z,7.43
2023-02-28T15:51:33.710Z,7.34
2023-02-28T15:53:15.870Z,7.39
2023-02-28T15:54:49.804Z,7.42
2023-02-28T15:56:27.083Z,7.41
2023-02-28T15:58:03.999Z,7.42
2023-02-28T15:59:39.082Z,7.48
2023-02-28T16:01:26.523Z,7.56
2023-02-28T16:02:59.849Z,7.59
2023-02-28T16:04:34.520Z,7.56
2023-02-28T16:06:30.352Z,7.50
2023-02-28T16:08:15.486Z,7.44
2023-02-28T16:09:49.223Z,7.38
2023-02-28T16:11:23.749Z,7.41
2023-02-28T16:12:58.436Z,7.45
2023-02-28T16:14:32.778Z,7.48
2023-02-28T16:16:06.611Z,7.47
2023-02-28T16:17:41.487Z,7.51
2023-02-28T16:19:15.202Z,7.54
2023-02-28T16:20:49.723Z,7.54
2023-02-28T16:22:23.210Z,7.48
2023-02-28T16:23:56.431Z,7.47
2023-02-28T16:25:36.643Z,7.46
2023-02-28T16:27:18.876Z,7.46
2023-02-28T16:28:53.466Z,7.46
2023-02-28T16:30:29.214Z,7.49
2023-02-28T16:32:04.011Z,7.54
2023-02-28T16:33:37.271Z,7.54
2023-02-28T16:35:13.229Z,7.53
2023-02-28T16:36:49.330Z,7.55
2023-02-28T16:38:22.761Z,7.58
2023-02-28T16:39:56.184Z,7.55
2023-02-28T16:41:31.230Z,7.59
2023-02-28T16:43:09.527Z,7.61
2023-02-28T16:44:42.949Z,7.60
2023-02-28T16:46:17.696Z,7.55
2023-02-28T16:47:51.064Z,7.56
2023-02-28T16:49:24.325Z,7.53
2023-02-28T16:50:58.294Z,7.51
2023-02-28T16:52:32.838Z,7.50
2023-02-28T16:54:06.098Z,7.49
2023-02-28T16:55:39.615Z,7.48
2023-02-28T16:57:22.059Z,7.49
2023-02-28T16:59:00.179Z,7.53
2023-02-28T17:00:35.156Z,7.52
2023-02-28T17:02:14.759Z,7.54
2023-02-28T17:03:48.236Z,7.58
2023-02-28T17:05:21.445Z,7.65
2023-02-28T17:06:54.843Z,7.68
2023-02-28T17:08:30.995Z,7.71
2023-02-28T17:10:09.680Z,7.71
2023-02-28T17:11:42.901Z,7.73
2023-02-28T17:13:16.170Z,7.71
2023-02-28T17:14:49.580Z,7.73
2023-02-28T17:16:27.866Z,7.67
2023-02-28T17:18:01.095Z,7.67
2023-02-28T17:19:35.051Z,7.61
2023-02-28T17:21:15.103Z,7.55
2023-02-28T17:22:48.351Z,7.54
2023-02-28T17:24:30.917Z,7.54
2023-02-28T17:26:07.614Z,7.54
2023-02-28T17:27:40.873Z,7.56
2023-02-28T17:29:18.448Z,7.57
2023-02-28T17:30:51.599Z,7.58
2023-02-28T17:32:25.653Z,7.59
2023-02-28T17:33:59.143Z,7.59
2023-02-28T17:35:32.503Z,7.56
2023-02-28T17:37:05.726Z,7.55
2023-02-28T17:38:38.919Z,7.57
2023-02-28T17:40:18.275Z,7.60
2023-02-28T17:41:51.535Z,7.60
2023-02-28T17:43:24.761Z,7.62
2023-02-28T17:44:57.937Z,7.64
2023-02-28T17:46:31.816Z,7.64
2023-02-28T17:48:05.747Z,7.67
2023-02-28T17:49:38.944Z,7.69
2023-02-28T17:51:14.901Z,7.72
2023-02-28T17:52:48.177Z,7.76
2023-02-28T17:54:21.411Z,7.77
2023-02-28T17:55:56.101Z,7.76
2023-02-28T17:57:29.345Z,7.77
2023-02-28T17:59:02.705Z,7.72
2023-02-28T18:00:35.848Z,7.74
2023-02-28T18:02:09.169Z,7.75
2023-02-28T18:03:42.329Z,7.72
2023-02-28T18:05:15.712Z,7.69
2023-02-28T18:06:51.183Z,7.65
2023-02-28T18:08:25.323Z,7.70
2023-02-28T18:09:59.947Z,7.72
2023-02-28T18:11:44.730Z,7.71
2023-02-28T18:13:18.070Z,7.71
2023-02-28T18:14:51.288Z,7.66
2023-02-28T18:16:24.618Z,7.68
2023-02-28T18:17:58.218Z,7.65
2023-02-28T18:19:31.543Z,7.60
2023-02-28T18:21:06.190Z,7.60
2023-02-28T18:22:41.289Z,7.61
2023-02-28T18:24:16.082Z,7.65
2023-02-28T18:25:49.672Z,7.63
2023-02-28T18:27:24.457Z,7.67
2023-02-28T18:28:59.766Z,7.68
2023-02-28T18:30:37.540Z,7.67
2023-02-28T18:32:11.264Z,7.67
2023-02-28T18:33:45.252Z,7.66
2023-02-28T18:35:36.236Z,7.65
2023-02-28T18:37:11.721Z,7.65
2023-02-28T18:38:46.115Z,7.65
2023-02-28T18:40:19.657Z,7.61
2023-02-28T18:41:52.958Z,7.59
2023-02-28T18:43:27.989Z,7.47
2023-02-28T18:45:01.140Z,7.42
2023-02-28T18:46:35.608Z,7.36
2023-02-28T18:48:08.801Z,7.36
2023-02-28T18:49:42.598Z,7.32
2023-02-28T18:51:18.450Z,7.41
2023-02-28T18:52:51.904Z,7.40
2023-02-28T18:54:25.713Z,7.42
2023-02-28T18:56:01.854Z,7.45
2023-02-28T18:57:37.838Z,7.41
2023-02-28T18:59:12.742Z,7.39
2023-02-28T19:00:45.950Z,7.42
2023-02-28T19:02:19.495Z,7.45
2023-02-28T19:03:52.945Z,7.45
2023-02-28T19:05:28.174Z,7.39
2023-02-28T19:07:02.988Z,7.39
2023-02-28T19:08:36.336Z,7.36
2023-02-28T19:10:11.942Z,7.36
2023-02-28T19:11:45.169Z,7.39
2023-02-28T19:13:18.428Z,7.42
2023-02-28T19:14:53.108Z,7.45
2023-02-28T19:16:28.131Z,7.48
2023-02-28T19:18:01.479Z,7.48
2023-02-28T19:19:34.697Z,7.47
2023-02-28T19:21:08.603Z,7.44
2023-02-28T19:22:42.066Z,7.45
2023-02-28T19:24:15.163Z,7.41
2023-02-28T19:25:47.664Z,7.40
2023-02-28T19:27:20.937Z,7.41
2023-02-28T19:28:54.865Z,7.34
2023-02-28T19:30:30.198Z,7.33
2023-02-28T19:32:05.279Z,7.31
2023-02-28T19:33:38.699Z,7.32
2023-02-28T19:35:12.064Z,7.30
2023-02-28T19:36:45.174Z,7.29
2023-02-28T19:38:18.583Z,7.29
2023-02-28T19:39:54.569Z,7.31
2023-02-28T19:41:27.997Z,7.29
2023-02-28T19:43:03.722Z,7.30
2023-02-28T19:44:38.101Z,7.35
2023-02-28T19:46:13.398Z,7.37
2023-02-28T19:47:46.554Z,7.38
2023-02-28T19:49:19.908Z,7.37
2023-02-28T19:50:53.703Z,7.39
2023-02-28T19:52:27.208Z,7.36
2023-02-28T19:54:00.382Z,7.34
2023-02-28T19:55:33.590Z,7.31
2023-02-28T19:57:06.780Z,7.27
2023-02-28T19:58:39.601Z,7.27
2023-02-28T20:00:15.373Z,7.28
2023-02-28T20:01:50.111Z,7.20
2023-02-28T20:03:23.857Z,7.27
2023-02-28T20:04:59.243Z,7.33
2023-02-28T20:06:34.777Z,7.35
2023-02-28T20:08:08.351Z,7.35
2023-02-28T20:09:41.701Z,7.34
2023-02-28T20:11:17.134Z,7.31
2023-02-28T20:12:51.105Z,7.32
2023-02-28T20:14:24.664Z,7.33
2023-02-28T20:16:00.777Z,7.36
2023-02-28T20:17:35.567Z,7.36
2023-02-28T20:19:09.078Z,7.40
2023-02-28T20:20:42.135Z,7.38
2023-02-28T20:22:15.334Z,7.36
2023-02-28T20:23:49.716Z,7.29
2023-02-28T20:25:23.134Z,7.22
2023-02-28T20:26:57.506Z,7.17
2023-02-28T20:28:30.801Z,7.16
2023-02-28T20:30:05.258Z,7.17
2023-02-28T20:31:43.120Z,7.17
2023-02-28T20:33:18.494Z,7.18
2023-02-28T20:34:51.785Z,7.16
2023-02-28T20:36:25.076Z,7.15
2023-02-28T20:37:58.383Z,7.16
2023-02-28T20:39:31.745Z,7.20
2023-02-28T20:41:07.011Z,7.19
2023-02-28T20:42:40.307Z,7.09
2023-02-28T20:44:14.630Z,7.06
2023-02-28T20:45:52.678Z,7.06
2023-02-28T20:47:25.941Z,7.05
2023-02-28T20:49:01.267Z,7.08
2023-02-28T20:50:34.448Z,7.15
2023-02-28T20:52:07.525Z,7.09
2023-02-28T20:53:40.727Z,7.09
2023-02-28T20:55:14.714Z,7.11
2023-02-28T20:56:47.991Z,7.11
2023-02-28T20:58:21.118Z,7.11
2023-02-28T20:59:54.212Z,7.15
2023-02-28T21:01:30.000Z,7.16
2023-02-28T21:03:03.365Z,7.26
2023-02-28T21:04:37.894Z,7.32
2023-02-28T21:06:11.231Z,7.31
2023-02-28T21:07:44.818Z,7.29
2023-02-28T21:09:18.069Z,7.30
2023-02-28T21:10:51.293Z,7.34
2023-02-28T21:12:24.481Z,7.38
2023-02-28T21:14:00.597Z,7.40
2023-02-28T21:15:33.769Z,7.42
2023-02-28T21:17:10.399Z,7.40
2023-02-28T21:18:43.886Z,7.40
2023-02-28T21:20:22.032Z,7.40
2023-02-28T21:21:56.326Z,7.38
2023-02-28T21:23:29.403Z,7.35
2023-02-28T21:25:02.699Z,7.31
2023-02-28T21:26:36.051Z,7.30
2023-02-28T21:28:09.452Z,7.36
2023-02-28T21:29:42.684Z,7.38
2023-02-28T21:31:17.646Z,7.39
2023-02-28T21:32:50.906Z,7.41
2023-02-28T21:34:24.748Z,7.41
2023-02-28T21:36:03.629Z,7.44
2023-02-28T21:37:38.874Z,7.44
2023-02-28T21:39:15.522Z,7.34
2023-02-28T21:40:51.422Z,7.37
2023-02-28T21:42:24.580Z,7.40
2023-02-28T21:43:58.393Z,7.43
2023-02-28T21:45:31.561Z,7.38
2023-02-28T21:47:05.780Z,7.41
2023-02-28T21:48:40.230Z,7.41
2023-02-28T21:50:13.536Z,7.43
2023-02-28T21:51:48.252Z,7.42
2023-02-28T21:53:21.937Z,7.45
2023-02-28T21:54:55.363Z,7.46
2023-02-28T21:56:30.853Z,7.46
2023-02-28T21:58:04.490Z,7.51
2023-02-28T21:59:38.246Z,7.48
2023-02-28T22:01:13.349Z,7.44
2023-02-28T22:02:46.577Z,7.42